sensor_id;sensor_type;location;lat;lon;timestamp;pressure;altitude;pressure_sealevel;temperature;humidity
40171;BME280;37650;52.790;18.268;2023-03-22T00:03:03;100362.81;;;6.07;100.00
40171;BME280;37650;52.790;18.268;2023-03-22T00:06:24;100357.37;;;6.01;100.00
40171;BME280;37650;52.790;18.268;2023-03-22T00:09:47;100352.42;;;5.94;100.00
40171;BME280;37650;52.790;18.268;2023-03-22T00:13:09;100348.35;;;5.89;100.00
40171;BME280;37650;52.790;18.268;2023-03-22T00:16:31;100343.00;;;5.86;100.00
40171;BME280;37650;52.790;18.268;2023-03-22T00:19:53;100340.04;;;5.85;100.00
40171;BME280;37650;52.790;18.268;2023-03-22T00:23:18;100339.25;;;5.81;100.00
40171;BME280;37650;52.790;18.268;2023-03-22T00:26:40;100334.98;;;5.76;100.00
40171;BME280;37650;52.790;18.268;2023-03-22T00:30:02;100331.60;;;5.70;100.00
40171;BME280;37650;52.790;18.268;2023-03-22T00:33:24;100328.19;;;5.67;100.00
40171;BME280;37650;52.790;18.268;2023-03-22T00:36:45;100327.77;;;5.62;100.00
40171;BME280;37650;52.790;18.268;2023-03-22T00:40:11;100325.66;;;5.52;100.00
40171;BME280;37650;52.790;18.268;2023-03-22T00:43:33;100325.85;;;5.42;100.00
40171;BME280;37650;52.790;18.268;2023-03-22T00:46:54;100323.88;;;5.34;100.00
40171;BME280;37650;52.790;18.268;2023-03-22T00:50:16;100320.19;;;5.26;100.00
40171;BME280;37650;52.790;18.268;2023-03-22T00:53:38;100320.30;;;5.19;100.00
40171;BME280;37650;52.790;18.268;2023-03-22T00:57:00;100313.63;;;5.12;100.00
40171;BME280;37650;52.790;18.268;2023-03-22T01:00:21;100312.83;;;5.08;100.00
40171;BME280;37650;52.790;18.268;2023-03-22T01:03:43;100308.85;;;5.06;100.00
40171;BME280;37650;52.790;18.268;2023-03-22T01:07:08;100305.01;;;5.07;100.00
40171;BME280;37650;52.790;18.268;2023-03-22T01:10:30;100304.81;;;5.08;100.00
40171;BME280;37650;52.790;18.268;2023-03-22T01:13:52;100302.17;;;5.11;100.00
40171;BME280;37650;52.790;18.268;2023-03-22T01:17:14;100298.52;;;5.11;100.00
40171;BME280;37650;52.790;18.268;2023-03-22T01:20:35;100290.86;;;5.12;100.00
40171;BME280;37650;52.790;18.268;2023-03-22T01:23:57;100287.52;;;5.14;100.00
40171;BME280;37650;52.790;18.268;2023-03-22T01:27:19;100283.26;;;5.19;100.00
40171;BME280;37650;52.790;18.268;2023-03-22T01:30:40;100274.80;;;5.26;100.00
40171;BME280;37650;52.790;18.268;2023-03-22T01:34:03;100263.55;;;5.32;100.00
40171;BME280;37650;52.790;18.268;2023-03-22T01:37:25;100258.81;;;5.34;100.00
40171;BME280;37650;52.790;18.268;2023-03-22T01:40:48;100257.64;;;5.32;100.00
40171;BME280;37650;52.790;18.268;2023-03-22T01:44:18;100253.82;;;5.32;100.00
40171;BME280;37650;52.790;18.268;2023-03-22T01:47:54;100250.48;;;5.34;100.00
40171;BME280;37650;52.790;18.268;2023-03-22T01:51:21;100246.42;;;5.37;100.00
40171;BME280;37650;52.790;18.268;2023-03-22T01:54:58;100244.83;;;5.39;100.00
40171;BME280;37650;52.790;18.268;2023-03-22T01:58:35;100242.55;;;5.39;100.00
40171;BME280;37650;52.790;18.268;2023-03-22T02:01:59;100236.77;;;5.42;100.00
40171;BME280;37650;52.790;18.268;2023-03-22T02:05:24;100233.28;;;5.42;100.00
40171;BME280;37650;52.790;18.268;2023-03-22T02:08:47;100229.78;;;5.43;100.00
40171;BME280;37650;52.790;18.268;2023-03-22T02:12:47;100226.29;;;5.44;100.00
40171;BME280;37650;52.790;18.268;2023-03-22T02:16:33;100221.62;;;5.43;100.00
40171;BME280;37650;52.790;18.268;2023-03-22T02:24:05;100210.05;;;5.46;100.00
40171;BME280;37650;52.790;18.268;2023-03-22T02:31:22;100213.48;;;5.59;100.00
40171;BME280;37650;52.790;18.268;2023-03-22T02:45:53;100214.33;;;5.87;100.00
40171;BME280;37650;52.790;18.268;2023-03-22T02:49:40;100211.19;;;5.97;100.00
40171;BME280;37650;52.790;18.268;2023-03-22T02:53:28;100208.75;;;6.05;100.00
40171;BME280;37650;52.790;18.268;2023-03-22T02:57:04;100208.61;;;6.11;100.00
40171;BME280;37650;52.790;18.268;2023-03-22T03:00:27;100209.30;;;6.12;100.00
40171;BME280;37650;52.790;18.268;2023-03-22T03:03:55;100207.23;;;6.09;100.00
40171;BME280;37650;52.790;18.268;2023-03-22T03:07:21;100205.66;;;6.10;100.00
40171;BME280;37650;52.790;18.268;2023-03-22T03:10:46;100200.24;;;6.12;100.00
40171;BME280;37650;52.790;18.268;2023-03-22T03:14:17;100197.61;;;6.13;100.00
40171;BME280;37650;52.790;18.268;2023-03-22T03:21:36;100196.25;;;6.11;100.00
40171;BME280;37650;52.790;18.268;2023-03-22T03:33:00;100182.15;;;6.18;100.00
40171;BME280;37650;52.790;18.268;2023-03-22T03:36:24;100181.04;;;6.21;100.00
40171;BME280;37650;52.790;18.268;2023-03-22T03:40:09;100184.31;;;6.23;100.00
40171;BME280;37650;52.790;18.268;2023-03-22T03:43:33;100180.83;;;6.23;100.00
40171;BME280;37650;52.790;18.268;2023-03-22T03:47:00;100179.54;;;6.25;100.00
40171;BME280;37650;52.790;18.268;2023-03-22T03:50:23;100179.29;;;6.29;100.00
40171;BME280;37650;52.790;18.268;2023-03-22T03:53:45;100178.70;;;6.32;100.00
40171;BME280;37650;52.790;18.268;2023-03-22T03:57:07;100181.45;;;6.34;100.00
40171;BME280;37650;52.790;18.268;2023-03-22T04:00:28;100183.14;;;6.36;100.00
40171;BME280;37650;52.790;18.268;2023-03-22T04:04:10;100180.52;;;6.37;100.00
40171;BME280;37650;52.790;18.268;2023-03-22T04:07:48;100176.15;;;6.37;100.00
40171;BME280;37650;52.790;18.268;2023-03-22T04:11:10;100178.05;;;6.38;100.00
40171;BME280;37650;52.790;18.268;2023-03-22T04:14:32;100167.23;;;6.38;100.00
40171;BME280;37650;52.790;18.268;2023-03-22T04:17:56;100165.86;;;6.38;100.00
40171;BME280;37650;52.790;18.268;2023-03-22T04:21:18;100166.92;;;6.37;100.00
40171;BME280;37650;52.790;18.268;2023-03-22T04:24:55;100168.19;;;6.36;100.00
40171;BME280;37650;52.790;18.268;2023-03-22T04:28:19;100160.53;;;6.35;100.00
40171;BME280;37650;52.790;18.268;2023-03-22T04:31:41;100160.32;;;6.36;100.00
40171;BME280;37650;52.790;18.268;2023-03-22T04:35:25;100161.34;;;6.37;100.00
40171;BME280;37650;52.790;18.268;2023-03-22T04:38:47;100162.05;;;6.37;100.00
40171;BME280;37650;52.790;18.268;2023-03-22T04:42:12;100165.16;;;6.37;100.00
40171;BME280;37650;52.790;18.268;2023-03-22T04:45:34;100164.66;;;6.37;100.00
40171;BME280;37650;52.790;18.268;2023-03-22T04:48:57;100158.73;;;6.37;100.00
40171;BME280;37650;52.790;18.268;2023-03-22T04:52:20;100154.17;;;6.38;100.00
40171;BME280;37650;52.790;18.268;2023-03-22T04:55:46;100149.43;;;6.40;100.00
40171;BME280;37650;52.790;18.268;2023-03-22T04:59:07;100152.48;;;6.44;100.00
40171;BME280;37650;52.790;18.268;2023-03-22T05:02:28;100140.54;;;6.47;100.00
40171;BME280;37650;52.790;18.268;2023-03-22T05:05:51;100139.55;;;6.52;100.00
40171;BME280;37650;52.790;18.268;2023-03-22T05:09:14;100135.83;;;6.55;100.00
40171;BME280;37650;52.790;18.268;2023-03-22T05:12:35;100134.86;;;6.58;100.00
40171;BME280;37650;52.790;18.268;2023-03-22T05:16:11;100132.88;;;6.62;100.00
40171;BME280;37650;52.790;18.268;2023-03-22T05:19:39;100132.30;;;6.63;100.00
40171;BME280;37650;52.790;18.268;2023-03-22T05:23:01;100131.39;;;6.65;100.00
40171;BME280;37650;52.790;18.268;2023-03-22T05:26:24;100135.29;;;6.69;100.00
40171;BME280;37650;52.790;18.268;2023-03-22T05:29:47;100130.76;;;6.69;100.00
40171;BME280;37650;52.790;18.268;2023-03-22T05:33:18;100127.77;;;6.70;100.00
40171;BME280;37650;52.790;18.268;2023-03-22T05:36:45;100127.86;;;6.73;100.00
40171;BME280;37650;52.790;18.268;2023-03-22T05:40:32;100123.06;;;6.77;100.00
40171;BME280;37650;52.790;18.268;2023-03-22T05:43:54;100119.81;;;6.82;100.00
40171;BME280;37650;52.790;18.268;2023-03-22T05:47:15;100116.55;;;6.86;100.00
40171;BME280;37650;52.790;18.268;2023-03-22T05:50:58;100107.85;;;6.92;100.00
40171;BME280;37650;52.790;18.268;2023-03-22T05:54:22;100109.09;;;6.98;100.00
40171;BME280;37650;52.790;18.268;2023-03-22T05:57:45;100121.00;;;7.03;100.00
40171;BME280;37650;52.790;18.268;2023-03-22T06:01:10;100131.57;;;7.05;100.00
40171;BME280;37650;52.790;18.268;2023-03-22T06:04:41;100132.19;;;7.08;100.00
40171;BME280;37650;52.790;18.268;2023-03-22T06:08:06;100133.83;;;7.11;100.00
40171;BME280;37650;52.790;18.268;2023-03-22T06:11:27;100133.86;;;7.17;100.00
40171;BME280;37650;52.790;18.268;2023-03-22T06:14:51;100134.33;;;7.19;100.00
40171;BME280;37650;52.790;18.268;2023-03-22T06:18:31;100137.06;;;7.22;100.00
40171;BME280;37650;52.790;18.268;2023-03-22T06:21:59;100134.20;;;7.24;100.00
40171;BME280;37650;52.790;18.268;2023-03-22T06:25:21;100133.04;;;7.28;100.00
40171;BME280;37650;52.790;18.268;2023-03-22T06:28:43;100127.08;;;7.29;100.00
40171;BME280;37650;52.790;18.268;2023-03-22T06:32:05;100132.77;;;7.32;100.00
40171;BME280;37650;52.790;18.268;2023-03-22T06:35:28;100134.37;;;7.37;100.00
40171;BME280;37650;52.790;18.268;2023-03-22T06:38:49;100132.27;;;7.43;100.00
40171;BME280;37650;52.790;18.268;2023-03-22T06:42:11;100134.59;;;7.53;100.00
40171;BME280;37650;52.790;18.268;2023-03-22T06:45:33;100139.96;;;7.61;100.00
40171;BME280;37650;52.790;18.268;2023-03-22T06:48:56;100140.27;;;7.68;100.00
40171;BME280;37650;52.790;18.268;2023-03-22T06:52:18;100140.23;;;7.75;100.00
40171;BME280;37650;52.790;18.268;2023-03-22T06:55:40;100137.00;;;7.79;100.00
40171;BME280;37650;52.790;18.268;2023-03-22T06:59:07;100133.56;;;7.83;100.00
40171;BME280;37650;52.790;18.268;2023-03-22T07:02:29;100135.04;;;7.85;100.00
40171;BME280;37650;52.790;18.268;2023-03-22T07:06:10;100135.65;;;7.89;100.00
40171;BME280;37650;52.790;18.268;2023-03-22T07:09:34;100135.96;;;7.95;100.00
40171;BME280;37650;52.790;18.268;2023-03-22T07:12:56;100133.45;;;7.98;100.00
40171;BME280;37650;52.790;18.268;2023-03-22T07:16:27;100134.81;;;8.05;100.00
40171;BME280;37650;52.790;18.268;2023-03-22T07:19:53;100133.30;;;8.09;100.00
40171;BME280;37650;52.790;18.268;2023-03-22T07:23:16;100125.70;;;8.17;100.00
40171;BME280;37650;52.790;18.268;2023-03-22T07:26:42;100119.91;;;8.23;100.00
40171;BME280;37650;52.790;18.268;2023-03-22T07:30:06;100120.94;;;8.30;100.00
40171;BME280;37650;52.790;18.268;2023-03-22T07:33:29;100121.48;;;8.35;100.00
40171;BME280;37650;52.790;18.268;2023-03-22T07:36:51;100123.08;;;8.39;100.00
40171;BME280;37650;52.790;18.268;2023-03-22T07:40:12;100121.55;;;8.43;100.00
40171;BME280;37650;52.790;18.268;2023-03-22T07:43:33;100123.61;;;8.50;100.00
40171;BME280;37650;52.790;18.268;2023-03-22T07:47:04;100125.61;;;8.54;100.00
40171;BME280;37650;52.790;18.268;2023-03-22T07:50:40;100126.16;;;8.63;100.00
40171;BME280;37650;52.790;18.268;2023-03-22T07:54:04;100121.27;;;8.73;100.00
40171;BME280;37650;52.790;18.268;2023-03-22T07:57:25;100116.17;;;8.84;100.00
40171;BME280;37650;52.790;18.268;2023-03-22T08:00:52;100117.88;;;9.06;100.00
40171;BME280;37650;52.790;18.268;2023-03-22T08:04:32;100109.61;;;9.65;100.00
40171;BME280;37650;52.790;18.268;2023-03-22T08:07:59;100102.71;;;10.07;100.00
40171;BME280;37650;52.790;18.268;2023-03-22T08:11:20;100115.21;;;10.15;100.00
40171;BME280;37650;52.790;18.268;2023-03-22T08:14:42;100123.63;;;9.97;100.00
40171;BME280;37650;52.790;18.268;2023-03-22T08:18:10;100121.54;;;9.78;100.00
40171;BME280;37650;52.790;18.268;2023-03-22T08:21:33;100122.25;;;9.68;100.00
40171;BME280;37650;52.790;18.268;2023-03-22T08:24:56;100124.77;;;9.57;100.00
40171;BME280;37650;52.790;18.268;2023-03-22T08:28:20;100122.38;;;9.51;100.00
40171;BME280;37650;52.790;18.268;2023-03-22T08:31:43;100122.63;;;9.49;100.00
40171;BME280;37650;52.790;18.268;2023-03-22T08:35:06;100121.10;;;9.43;100.00
40171;BME280;37650;52.790;18.268;2023-03-22T08:38:27;100121.64;;;9.43;100.00
40171;BME280;37650;52.790;18.268;2023-03-22T08:41:49;100127.41;;;9.47;100.00
40171;BME280;37650;52.790;18.268;2023-03-22T08:45:11;100133.37;;;9.56;100.00
40171;BME280;37650;52.790;18.268;2023-03-22T08:48:38;100136.88;;;9.61;100.00
40171;BME280;37650;52.790;18.268;2023-03-22T08:52:09;100138.19;;;9.59;100.00
40171;BME280;37650;52.790;18.268;2023-03-22T08:55:53;100137.02;;;9.62;100.00
40171;BME280;37650;52.790;18.268;2023-03-22T08:59:34;100134.06;;;9.66;100.00
40171;BME280;37650;52.790;18.268;2023-03-22T09:03:09;100129.29;;;9.72;100.00
40171;BME280;37650;52.790;18.268;2023-03-22T09:06:31;100127.65;;;9.79;100.00
40171;BME280;37650;52.790;18.268;2023-03-22T09:09:53;100126.76;;;9.88;100.00
40171;BME280;37650;52.790;18.268;2023-03-22T09:13:14;100121.24;;;10.00;100.00
40171;BME280;37650;52.790;18.268;2023-03-22T09:16:41;100121.67;;;10.10;100.00
40171;BME280;37650;52.790;18.268;2023-03-22T09:20:03;100117.33;;;10.20;100.00
40171;BME280;37650;52.790;18.268;2023-03-22T09:23:25;100105.17;;;10.25;100.00
40171;BME280;37650;52.790;18.268;2023-03-22T09:26:47;100099.30;;;10.36;100.00
40171;BME280;37650;52.790;18.268;2023-03-22T09:30:10;100098.97;;;10.52;100.00
40171;BME280;37650;52.790;18.268;2023-03-22T09:33:33;100094.23;;;10.57;100.00
40171;BME280;37650;52.790;18.268;2023-03-22T09:36:54;100096.23;;;10.55;100.00
40171;BME280;37650;52.790;18.268;2023-03-22T09:40:21;100097.63;;;10.56;100.00
40171;BME280;37650;52.790;18.268;2023-03-22T09:43:57;100098.49;;;10.60;100.00
40171;BME280;37650;52.790;18.268;2023-03-22T09:47:36;100101.64;;;10.69;100.00
40171;BME280;37650;52.790;18.268;2023-03-22T09:51:00;100100.64;;;10.80;100.00
40171;BME280;37650;52.790;18.268;2023-03-22T09:54:32;100095.72;;;10.88;100.00
40171;BME280;37650;52.790;18.268;2023-03-22T09:58:03;100086.39;;;11.20;100.00
40171;BME280;37650;52.790;18.268;2023-03-22T10:01:50;100078.72;;;13.08;100.00
40171;BME280;37650;52.790;18.268;2023-03-22T10:12:28;100068.86;;;16.83;100.00
40171;BME280;37650;52.790;18.268;2023-03-22T10:16:12;100062.27;;;17.29;100.00
40171;BME280;37650;52.790;18.268;2023-03-22T10:19:46;100061.68;;;17.58;100.00
40171;BME280;37650;52.790;18.268;2023-03-22T10:23:18;100055.97;;;17.18;100.00
40171;BME280;37650;52.790;18.268;2023-03-22T10:26:44;100058.14;;;16.39;100.00
40171;BME280;37650;52.790;18.268;2023-03-22T10:30:22;100053.84;;;15.89;100.00
40171;BME280;37650;52.790;18.268;2023-03-22T10:34:06;100059.61;;;15.47;100.00
40171;BME280;37650;52.790;18.268;2023-03-22T10:37:51;100056.36;;;14.79;100.00
40171;BME280;37650;52.790;18.268;2023-03-22T10:41:16;100055.67;;;14.19;100.00
40171;BME280;37650;52.790;18.268;2023-03-22T10:45:00;100060.21;;;13.91;100.00
40171;BME280;37650;52.790;18.268;2023-03-22T10:48:28;100056.29;;;13.98;100.00
40171;BME280;37650;52.790;18.268;2023-03-22T10:51:55;100053.42;;;14.05;100.00
40171;BME280;37650;52.790;18.268;2023-03-22T10:55:18;100054.49;;;14.26;100.00
40171;BME280;37650;52.790;18.268;2023-03-22T10:58:39;100054.81;;;14.36;100.00
40171;BME280;37650;52.790;18.268;2023-03-22T11:02:00;100051.27;;;14.40;100.00
40171;BME280;37650;52.790;18.268;2023-03-22T11:05:27;100045.02;;;14.16;100.00
40171;BME280;37650;52.790;18.268;2023-03-22T11:08:58;100050.28;;;14.07;100.00
40171;BME280;37650;52.790;18.268;2023-03-22T11:12:21;100045.55;;;14.07;100.00
40171;BME280;37650;52.790;18.268;2023-03-22T11:15:59;100043.80;;;14.01;100.00
40171;BME280;37650;52.790;18.268;2023-03-22T11:19:30;100036.41;;;13.94;100.00
40171;BME280;37650;52.790;18.268;2023-03-22T11:22:53;100035.24;;;14.02;100.00
40171;BME280;37650;52.790;18.268;2023-03-22T11:26:26;100032.67;;;14.28;100.00
40171;BME280;37650;52.790;18.268;2023-03-22T11:29:50;100028.63;;;14.44;100.00
40171;BME280;37650;52.790;18.268;2023-03-22T11:33:18;100029.53;;;14.46;100.00
40171;BME280;37650;52.790;18.268;2023-03-22T11:36:43;100023.82;;;14.38;100.00
40171;BME280;37650;52.790;18.268;2023-03-22T11:40:09;100021.63;;;14.12;100.00
40171;BME280;37650;52.790;18.268;2023-03-22T11:43:37;100019.88;;;14.12;100.00
40171;BME280;37650;52.790;18.268;2023-03-22T11:47:01;100015.09;;;14.30;100.00
40171;BME280;37650;52.790;18.268;2023-03-22T11:50:28;100016.49;;;14.46;100.00
40171;BME280;37650;52.790;18.268;2023-03-22T11:53:55;100013.23;;;14.59;100.00
40171;BME280;37650;52.790;18.268;2023-03-22T11:57:27;100009.18;;;14.65;100.00
40171;BME280;37650;52.790;18.268;2023-03-22T12:00:51;100011.42;;;14.72;99.93
40171;BME280;37650;52.790;18.268;2023-03-22T12:04:16;100011.20;;;14.69;100.00
40171;BME280;37650;52.790;18.268;2023-03-22T12:07:40;100003.27;;;14.55;99.80
40171;BME280;37650;52.790;18.268;2023-03-22T12:11:05;100002.83;;;14.45;100.00
40171;BME280;37650;52.790;18.268;2023-03-22T12:14:31;100001.81;;;14.47;99.91
40171;BME280;37650;52.790;18.268;2023-03-22T12:21:54;99994.26;;;14.58;100.00
40171;BME280;37650;52.790;18.268;2023-03-22T12:25:18;99991.05;;;14.61;98.93
40171;BME280;37650;52.790;18.268;2023-03-22T12:28:58;99993.58;;;14.69;99.65
40171;BME280;37650;52.790;18.268;2023-03-22T12:32:27;99988.34;;;14.83;98.99
40171;BME280;37650;52.790;18.268;2023-03-22T12:35:54;99983.16;;;14.92;96.69
40171;BME280;37650;52.790;18.268;2023-03-22T12:39:23;99980.54;;;15.15;96.57
40171;BME280;37650;52.790;18.268;2023-03-22T12:43:13;99978.06;;;15.57;94.83
40171;BME280;37650;52.790;18.268;2023-03-22T12:46:48;99979.07;;;16.38;95.02
40171;BME280;37650;52.790;18.268;2023-03-22T12:50:16;99980.95;;;16.34;92.81
40171;BME280;37650;52.790;18.268;2023-03-22T12:53:49;99977.13;;;16.88;90.98
40171;BME280;37650;52.790;18.268;2023-03-22T12:57:13;99979.01;;;16.89;91.13
40171;BME280;37650;52.790;18.268;2023-03-22T13:01:00;99976.30;;;16.48;89.60
40171;BME280;37650;52.790;18.268;2023-03-22T13:07:58;99974.35;;;16.06;91.19
40171;BME280;37650;52.790;18.268;2023-03-22T13:11:23;99974.41;;;15.70;91.92
40171;BME280;37650;52.790;18.268;2023-03-22T13:22:20;99965.30;;;15.32;92.18
40171;BME280;37650;52.790;18.268;2023-03-22T13:26:12;99965.16;;;15.23;93.39
40171;BME280;37650;52.790;18.268;2023-03-22T13:29:37;99960.58;;;15.15;93.94
40171;BME280;37650;52.790;18.268;2023-03-22T13:36:29;99946.41;;;15.09;92.95
40171;BME280;37650;52.790;18.268;2023-03-22T13:39:52;99938.02;;;15.03;92.99
40171;BME280;37650;52.790;18.268;2023-03-22T13:43:32;99940.65;;;14.80;92.64
40171;BME280;37650;52.790;18.268;2023-03-22T13:46:59;99937.23;;;14.64;94.75
40171;BME280;37650;52.790;18.268;2023-03-22T13:50:29;99926.55;;;14.65;94.96
40171;BME280;37650;52.790;18.268;2023-03-22T13:57:54;99915.31;;;14.79;95.29
40171;BME280;37650;52.790;18.268;2023-03-22T14:01:28;99910.45;;;14.95;95.33
40171;BME280;37650;52.790;18.268;2023-03-22T14:04:55;99906.39;;;15.17;93.35
40171;BME280;37650;52.790;18.268;2023-03-22T14:08:23;99906.73;;;15.11;91.10
40171;BME280;37650;52.790;18.268;2023-03-22T14:11:52;99908.55;;;15.05;91.55
40171;BME280;37650;52.790;18.268;2023-03-22T14:15:22;99905.04;;;14.85;92.32
40171;BME280;37650;52.790;18.268;2023-03-22T14:18:46;99905.16;;;14.69;92.49
40171;BME280;37650;52.790;18.268;2023-03-22T14:22:21;99896.65;;;14.64;93.68
40171;BME280;37650;52.790;18.268;2023-03-22T14:25:49;99896.95;;;14.73;94.36
40171;BME280;37650;52.790;18.268;2023-03-22T14:29:17;99890.86;;;14.81;93.72
40171;BME280;37650;52.790;18.268;2023-03-22T14:32:42;99882.53;;;14.83;94.18
40171;BME280;37650;52.790;18.268;2023-03-22T14:36:06;99877.60;;;14.92;93.74
40171;BME280;37650;52.790;18.268;2023-03-22T14:39:32;99877.20;;;14.98;92.24
40171;BME280;37650;52.790;18.268;2023-03-22T14:42:54;99873.52;;;14.89;92.61
40171;BME280;37650;52.790;18.268;2023-03-22T14:46:20;99876.88;;;14.95;92.99
40171;BME280;37650;52.790;18.268;2023-03-22T14:49:45;99876.30;;;14.98;91.99
40171;BME280;37650;52.790;18.268;2023-03-22T14:53:09;99876.08;;;14.99;92.65
40171;BME280;37650;52.790;18.268;2023-03-22T14:56:34;99880.29;;;14.97;91.51
40171;BME280;37650;52.790;18.268;2023-03-22T15:00:06;99883.45;;;14.77;91.64
40171;BME280;37650;52.790;18.268;2023-03-22T15:03:36;99889.87;;;14.67;93.12
40171;BME280;37650;52.790;18.268;2023-03-22T18:27:30;99846.44;;;10.68;100.00
40171;BME280;37650;52.790;18.268;2023-03-22T18:30:53;99845.99;;;10.63;100.00
40171;BME280;37650;52.790;18.268;2023-03-22T18:34:15;99843.92;;;10.62;100.00
40171;BME280;37650;52.790;18.268;2023-03-22T18:37:39;99845.09;;;10.63;100.00
40171;BME280;37650;52.790;18.268;2023-03-22T18:41:07;99840.83;;;10.64;100.00
40171;BME280;37650;52.790;18.268;2023-03-22T18:44:32;99833.27;;;10.65;100.00
40171;BME280;37650;52.790;18.268;2023-03-22T18:47:54;99831.51;;;10.65;100.00
40171;BME280;37650;52.790;18.268;2023-03-22T18:51:16;99831.84;;;10.65;100.00
40171;BME280;37650;52.790;18.268;2023-03-22T18:54:40;99830.42;;;10.66;100.00
40171;BME280;37650;52.790;18.268;2023-03-22T18:58:07;99826.02;;;10.66;100.00
40171;BME280;37650;52.790;18.268;2023-03-22T19:01:30;99823.90;;;10.66;100.00
40171;BME280;37650;52.790;18.268;2023-03-22T19:04:55;99820.88;;;10.67;100.00
40171;BME280;37650;52.790;18.268;2023-03-22T19:08:19;99824.11;;;10.65;100.00
40171;BME280;37650;52.790;18.268;2023-03-22T19:11:43;99821.88;;;10.64;100.00
40171;BME280;37650;52.790;18.268;2023-03-22T19:15:08;99821.84;;;10.65;100.00
40171;BME280;37650;52.790;18.268;2023-03-22T19:18:33;99820.94;;;10.66;100.00
40171;BME280;37650;52.790;18.268;2023-03-22T19:21:57;99819.63;;;10.64;100.00
40171;BME280;37650;52.790;18.268;2023-03-22T19:25:20;99815.09;;;10.63;100.00
40171;BME280;37650;52.790;18.268;2023-03-22T19:28:43;99812.19;;;10.62;100.00
40171;BME280;37650;52.790;18.268;2023-03-22T19:32:07;99809.58;;;10.61;100.00
40171;BME280;37650;52.790;18.268;2023-03-22T19:35:30;99811.90;;;10.60;100.00
40171;BME280;37650;52.790;18.268;2023-03-22T19:38:55;99815.08;;;10.60;100.00
40171;BME280;37650;52.790;18.268;2023-03-22T19:42:19;99818.64;;;10.59;100.00
40171;BME280;37650;52.790;18.268;2023-03-22T19:45:43;99817.89;;;10.55;100.00
40171;BME280;37650;52.790;18.268;2023-03-22T19:49:08;99814.94;;;10.51;100.00
40171;BME280;37650;52.790;18.268;2023-03-22T19:52:32;99812.38;;;10.46;100.00
40171;BME280;37650;52.790;18.268;2023-03-22T19:55:56;99815.08;;;10.40;100.00
40171;BME280;37650;52.790;18.268;2023-03-22T19:59:20;99813.86;;;10.37;100.00
40171;BME280;37650;52.790;18.268;2023-03-22T20:02:44;99814.05;;;10.32;100.00
40171;BME280;37650;52.790;18.268;2023-03-22T20:06:10;99811.98;;;10.27;100.00
40171;BME280;37650;52.790;18.268;2023-03-22T20:09:36;99810.20;;;10.20;100.00
40171;BME280;37650;52.790;18.268;2023-03-22T20:13:04;99808.86;;;10.14;100.00
40171;BME280;37650;52.790;18.268;2023-03-22T20:16:31;99812.87;;;10.11;100.00
40171;BME280;37650;52.790;18.268;2023-03-22T20:19:58;99811.95;;;10.08;100.00
40171;BME280;37650;52.790;18.268;2023-03-22T20:23:23;99805.45;;;10.04;100.00
40171;BME280;37650;52.790;18.268;2023-03-22T20:26:47;99810.52;;;10.00;100.00
40171;BME280;37650;52.790;18.268;2023-03-22T20:30:15;99810.02;;;9.96;100.00
40171;BME280;37650;52.790;18.268;2023-03-22T20:33:39;99809.08;;;9.94;100.00
40171;BME280;37650;52.790;18.268;2023-03-22T20:37:03;99809.20;;;9.94;100.00
40171;BME280;37650;52.790;18.268;2023-03-22T20:40:26;99806.30;;;9.97;100.00
40171;BME280;37650;52.790;18.268;2023-03-22T20:43:48;99806.34;;;9.92;100.00
40171;BME280;37650;52.790;18.268;2023-03-22T20:47:11;99803.52;;;9.84;100.00
40171;BME280;37650;52.790;18.268;2023-03-22T20:50:34;99801.26;;;9.76;100.00
40171;BME280;37650;52.790;18.268;2023-03-22T20:53:57;99799.77;;;9.69;100.00
40171;BME280;37650;52.790;18.268;2023-03-22T20:57:20;99802.20;;;9.66;100.00
40171;BME280;37650;52.790;18.268;2023-03-22T21:00:44;99800.44;;;9.62;100.00
40171;BME280;37650;52.790;18.268;2023-03-22T21:04:07;99799.89;;;9.59;100.00
40171;BME280;37650;52.790;18.268;2023-03-22T21:07:29;99802.02;;;9.58;100.00
40171;BME280;37650;52.790;18.268;2023-03-22T21:10:58;99800.23;;;9.59;100.00
40171;BME280;37650;52.790;18.268;2023-03-22T21:14:21;99795.64;;;9.60;100.00
40171;BME280;37650;52.790;18.268;2023-03-22T21:17:44;99793.88;;;9.60;100.00
40171;BME280;37650;52.790;18.268;2023-03-22T21:21:13;99790.54;;;9.61;100.00
40171;BME280;37650;52.790;18.268;2023-03-22T21:24:34;99784.02;;;9.61;100.00
40171;BME280;37650;52.790;18.268;2023-03-22T21:27:56;99781.86;;;9.62;100.00
40171;BME280;37650;52.790;18.268;2023-03-22T21:31:17;99783.32;;;9.61;100.00
40171;BME280;37650;52.790;18.268;2023-03-22T21:34:39;99778.71;;;9.58;100.00
40171;BME280;37650;52.790;18.268;2023-03-22T21:38:01;99775.05;;;9.58;100.00
40171;BME280;37650;52.790;18.268;2023-03-22T21:41:29;99777.06;;;9.56;100.00
40171;BME280;37650;52.790;18.268;2023-03-22T21:44:51;99779.63;;;9.57;100.00
40171;BME280;37650;52.790;18.268;2023-03-22T21:48:13;99783.02;;;9.56;100.00
40171;BME280;37650;52.790;18.268;2023-03-22T21:51:35;99781.09;;;9.52;100.00
40171;BME280;37650;52.790;18.268;2023-03-22T21:54:56;99778.41;;;9.49;100.00
40171;BME280;37650;52.790;18.268;2023-03-22T21:58:20;99778.44;;;9.49;100.00
40171;BME280;37650;52.790;18.268;2023-03-22T22:01:44;99777.27;;;9.47;100.00
40171;BME280;37650;52.790;18.268;2023-03-22T22:05:07;99776.00;;;9.44;100.00
40171;BME280;37650;52.790;18.268;2023-03-22T22:08:30;99773.92;;;9.44;100.00